Arviat Airport
CYEK : now visible

Airfield :











YOU CAN JOIN US ON...

 
LOGIN :

Register | Disclaimer

   EN    FR    IT 

 









Legend :    VFR   Marginal VFR   IFR   Intensive IFR   Very Intensive IFR
Visi :
Ceiling :
>= 8 km
>= 3000ft
5 to 8 km
1000 to 3000 ft
1500m to 5 km
500 to 1000 ft
800 to 1500m
200 to 500 ft
< 800m
< 200 ft
Symbols :   Thunderstorms  Fog  Heavy snow  Heavy precipitations  Wind > 20 kt






- Airport Elevation : 32 ft
- IATA code : YEK


CYEK - Arviat

CURRENT METAR :
  • 281346Z AUTO 36007KT 8SM OVC012 M16/M18 A2979 RMK SLP093

EXPIRED METARs :
  • 281300Z AUTO 36008KT 9SM -SN OVC010 M17/M18 A2979 RMK SLP088
  • 281234Z AUTO 36008KT 9SM -SN OVC010 M17/M19 A2977 RMK SLP083
  • 281212Z AUTO 36007KT 9SM -SN OVC010 M17/M19 A2977 RMK SLP083
  • 281200Z AUTO 36008KT 9SM OVC010 M17/M19 A2977 RMK SLP083
  • 281134Z AUTO 36009KT 9SM OVC008 M18/M20 A2977 RMK SLP082
  • 281100Z AUTO 36010KT 9SM -SN OVC008 M19/M20 A2976 RMK SLP080

TAF TAF CYEK
Valid from the 28 at 12:00 until the 29 at 00:00 UTC


281138Z 2812/2824 35010KT P6SM OVC008
TEMPO 2812/2814 SCT008
FM281700 36010KT P6SM BKN010
TEMPO 2817/2824 SCT010 RMK FCST BASED ON AUTO OBS. NXT FCST BY 281800Z
CZEG FIR / North America



MET'MAP, your aeronautical weather chart ! - Copyright ORBIFLY December 2007 - Disclaimer

ORBIFLY MET'MAP TEAM :

Programming & Development : Alexandra Zaïnal
Concept & original design : Baudouin d'Aumeries
Assistance for programming : Marc-Olivier Méhu
Technical & hardware support : Manuel Goepfert

Contact : metmap@orbifly.com




SOURCES & CREDITS :

   NOAA       Earth
Advisory